Time;durP1;ratioP1;P1;durP2;ratioP2;P2;SDS_P1;SDS_P2;PMS_P1;PMS_P2;Temp;Humidity;BMP_temperature;BMP_pressure;BME280_temperature;BME280_humidity;BME280_pressure;Samples;Min_cycle;Max_cycle;Signal;HPM_P1;HPM_P2
2021/08/08 00:00:23;;;;;;;2.50;0.90;;;;;;;;;;10478056;28;19908;-83
2021/08/08 00:05:23;;;;;;;;;;;;;;;;;;10459767;28;20033;-83
2021/08/08 00:10:24;;;;;;;2.33;0.93;;;;;;;;;;10472882;28;20385;-85
2021/08/08 00:15:25;;;;;;;;;;;;;;;;;;10478240;28;20509;-83
2021/08/08 00:20:26;;;;;;;1.63;1.00;;;;;;;;;;10476281;28;19938;-86
2021/08/08 00:25:27;;;;;;;;;;;;;;;;;;10462411;28;20080;-85
2021/08/08 00:30:28;;;;;;;2.08;0.98;;;;;;;;;;10477976;28;19913;-84
2021/08/08 00:35:29;;;;;;;;;;;;;;;;;;10460164;28;20395;-84
2021/08/08 00:40:30;;;;;;;1.92;0.98;;;;;;;;;;10479966;28;19892;-85
2021/08/08 00:45:31;;;;;;;1.70;0.77;;;;;;;;;;10463847;28;20041;-85
2021/08/08 00:50:32;;;;;;;;;;;;;;;;;;10456749;28;20043;-83
2021/08/08 00:55:33;;;;;;;2.33;1.10;;;;;;;;;;10472097;28;19912;-83
2021/08/08 01:00:34;;;;;;;2.58;1.10;;;;;;;;;;10457784;28;20447;-83
2021/08/08 01:05:38;;;;;;;2.05;1.20;;;;;;;;;;10471384;28;20035;-84
2021/08/08 01:10:41;;;;;;;2.63;1.02;;;;;;;;;;10466399;28;20033;-83
2021/08/08 01:15:42;;;;;;;1.83;1.00;;;;;;;;;;10465184;28;20033;-84
2021/08/08 01:20:45;;;;;;;2.05;0.90;;;;;;;;;;10469804;28;20104;-86
2021/08/08 01:25:47;;;;;;;2.80;1.33;;;;;;;;;;10467243;28;20084;-86
2021/08/08 01:30:48;;;;;;;2.38;1.10;;;;;;;;;;10455221;28;20562;-84
2021/08/08 01:35:49;;;;;;;;;;;;;;;;;;10455343;28;20033;-84
2021/08/08 01:41:01;;;;;;;2.25;1.35;;;;;;;;;;10467693;28;19908;-83
2021/08/08 01:46:07;;;;;;;3.55;1.20;;;;;;;;;;10454258;28;20421;-86
2021/08/08 01:51:08;;;;;;;4.05;1.60;;;;;;;;;;10452720;28;20092;-85
2021/08/08 01:56:09;;;;;;;;;;;;;;;;;;10452492;28;20036;-84
2021/08/08 02:01:09;;;;;;;3.33;1.50;;;;;;;;;;10471277;28;19908;-85
2021/08/08 02:06:10;;;;;;;;;;;;;;;;;;10454137;28;20044;-83
2021/08/08 02:11:11;;;;;;;7.45;2.03;;;;;;;;;;10466579;28;19905;-86
2021/08/08 02:16:12;;;;;;;;;;;;;;;;;;10452004;28;20041;-86
2021/08/08 02:21:13;;;;;;;3.45;1.70;;;;;;;;;;10463341;28;20357;-83
2021/08/08 02:26:14;;;;;;;;;;;;;;;;;;10450994;28;20082;-86
2021/08/08 02:31:17;;;;;;;5.35;2.03;;;;;;;;;;10468232;28;20272;-85
2021/08/08 02:36:18;;;;;;;3.97;1.63;;;;;;;;;;10453373;28;20033;-86
2021/08/08 02:41:19;;;;;;;;;;;;;;;;;;10449806;28;20128;-83
2021/08/08 02:46:21;;;;;;;4.93;2.08;;;;;;;;;;10463232;28;19905;-83
2021/08/08 02:51:21;;;;;;;8.77;2.40;;;;;;;;;;10445693;28;20471;-83
2021/08/08 02:56:22;;;;;;;;;;;;;;;;;;10452641;28;20037;-86
2021/08/08 03:01:24;;;;;;;5.47;2.10;;;;;;;;;;10475346;28;20355;-86
2021/08/08 03:06:25;;;;;;;7.22;2.40;;;;;;;;;;10446546;28;20037;-83
2021/08/08 03:11:25;;;;;;;;;;;;;;;;;;10449022;28;20403;-84
2021/08/08 03:16:26;;;;;;;6.05;2.30;;;;;;;;;;10478601;28;19936;-82
2021/08/08 03:21:27;;;;;;;;;;;;;;;;;;10469038;28;20033;-84
2021/08/08 03:26:29;;;;;;;6.57;2.40;;;;;;;;;;10470509;28;19916;-82
2021/08/08 03:31:30;;;;;;;6.28;2.10;;;;;;;;;;10459234;28;20043;-85
2021/08/08 03:36:31;;;;;;;7.18;2.42;;;;;;;;;;10463077;28;20037;-83
2021/08/08 03:41:32;;;;;;;6.63;2.13;;;;;;;;;;10459189;28;20041;-82
2021/08/08 03:46:33;;;;;;;;;;;;;;;;;;10460465;28;20029;-82
2021/08/08 03:51:34;;;;;;;6.07;2.10;;;;;;;;;;10470877;28;19947;-85
2021/08/08 03:56:35;;;;;;;;;;;;;;;;;;10480888;28;20123;-85
2021/08/08 04:01:36;;;;;;;7.95;2.30;;;;;;;;;;10482218;28;19959;-83
2021/08/08 04:06:37;;;;;;;;;;;;;;;;;;10461082;28;20450;-83
2021/08/08 04:11:38;;;;;;;6.65;2.40;;;;;;;;;;10477116;28;19968;-83
2021/08/08 04:16:39;;;;;;;9.15;2.72;;;;;;;;;;10455484;28;20043;-84
2021/08/08 04:21:39;;;;;;;;;;;;;;;;;;10455413;28;20037;-86
2021/08/08 04:26:40;;;;;;;11.63;2.33;;;;;;;;;;10470581;28;19919;-86
2021/08/08 04:31:41;;;;;;;;;;;;;;;;;;10454075;28;20033;-85
2021/08/08 04:36:42;;;;;;;6.25;1.92;;;;;;;;;;10470411;28;19915;-83
2021/08/08 04:41:43;;;;;;;;;;;;;;;;;;10453369;28;20052;-86
2021/08/08 04:46:44;;;;;;;6.90;2.28;;;;;;;;;;10471546;28;19916;-82
2021/08/08 04:51:45;;;;;;;;;;;;;;;;;;10454370;28;20506;-83
2021/08/08 04:56:46;;;;;;;8.20;2.55;;;;;;;;;;10465620;28;19912;-83
2021/08/08 05:01:47;;;;;;;;;;;;;;;;;;10452630;28;20044;-83
2021/08/08 05:06:48;;;;;;;11.70;2.88;;;;;;;;;;10470664;28;19905;-83
2021/08/08 05:11:48;;;;;;;;;;;;;;;;;;10453224;28;20047;-86
2021/08/08 05:16:49;;;;;;;7.43;2.55;;;;;;;;;;10471324;28;19991;-85
2021/08/08 05:21:50;;;;;;;;;;;;;;;;;;10470943;28;20061;-85
2021/08/08 05:26:53;;;;;;;5.13;2.28;;;;;;;;;;10471393;28;20367;-85
2021/08/08 05:31:54;;;;;;;7.47;2.28;;;;;;;;;;10471168;28;20502;-85
2021/08/08 05:36:55;;;;;;;;;;;;;;;;;;10447520;28;20033;-83
2021/08/08 05:41:56;;;;;;;5.63;2.00;;;;;;;;;;10462541;28;20377;-83
2021/08/08 05:46:57;;;;;;;;;;;;;;;;;;10445765;28;20503;-84
2021/08/08 05:51:57;;;;;;;5.80;2.20;;;;;;;;;;10468708;28;20000;-86
2021/08/08 05:56:58;;;;;;;;;;;;;;;;;;10450024;28;20025;-84
2021/08/08 06:02:01;;;;;;;6.80;2.33;;;;;;;;;;10477140;28;19928;-84
2021/08/08 06:07:02;;;;;;;;;;;;;;;;;;10449368;28;20029;-85
2021/08/08 06:12:03;;;;;;;8.48;2.75;;;;;;;;;;10466648;28;19912;-85
2021/08/08 06:17:04;;;;;;;8.02;2.75;;;;;;;;;;10454269;28;20037;-84
2021/08/08 06:22:05;;;;;;;5.38;2.45;;;;;;;;;;10447224;28;20036;-83
2021/08/08 06:27:06;;;;;;;;;;;;;;;;;;10451775;28;20041;-85
2021/08/08 06:32:07;;;;;;;8.68;2.50;;;;;;;;;;10471363;28;19915;-85
2021/08/08 06:37:08;;;;;;;6.80;2.20;;;;;;;;;;10470588;28;20119;-86
2021/08/08 06:42:09;;;;;;;;;;;;;;;;;;10470966;28;20044;-85
2021/08/08 06:47:10;;;;;;;7.15;2.70;;;;;;;;;;10478505;28;19905;-86
2021/08/08 06:52:11;;;;;;;;;;;;;;;;;;10463639;28;20057;-85
2021/08/08 06:57:12;;;;;;;8.80;3.47;;;;;;;;;;10470596;28;19905;-85
2021/08/08 07:02:13;;;;;;;;;;;;;;;;;;10458542;28;20138;-85
2021/08/08 07:07:15;;;;;;;7.75;2.40;;;;;;;;;;10473235;28;20015;-85
2021/08/08 07:12:16;;;;;;;5.88;2.72;;;;;;;;;;10455871;28;20063;-85
2021/08/08 07:17:16;;;;;;;;;;;;;;;;;;10459711;28;20037;-86
2021/08/08 07:22:17;;;;;;;7.20;2.53;;;;;;;;;;10476568;28;19915;-84
2021/08/08 07:27:18;;;;;;;;;;;;;;;;;;10454032;28;20045;-84
2021/08/08 07:32:19;;;;;;;6.38;2.53;;;;;;;;;;10472850;28;20366;-84
2021/08/08 07:37:21;;;;;;;;;;;;;;;;;;10463499;28;20039;-84
2021/08/08 07:42:24;;;;;;;129.82;84.32;;;;;;;;;;10492017;28;19976;-83
2021/08/08 07:47:25;;;;;;;8.48;3.28;;;;;;;;;;10462093;28;20403;-84
2021/08/08 07:52:26;;;;;;;;;;;;;;;;;;10455887;28;20036;-84
2021/08/08 07:57:27;;;;;;;9.15;2.70;;;;;;;;;;10472107;28;19927;-84
2021/08/08 08:02:28;;;;;;;;;;;;;;;;;;10456510;28;20036;-86
2021/08/08 08:07:29;;;;;;;6.72;2.63;;;;;;;;;;10483197;28;19904;-86
2021/08/08 08:12:30;;;;;;;4.18;2.20;;;;;;;;;;10458258;28;20069;-85
2021/08/08 08:17:31;;;;;;;8.60;3.22;;;;;;;;;;10462244;28;20025;-86
2021/08/08 08:22:32;;;;;;;;;;;;;;;;;;10455987;28;20036;-85
2021/08/08 08:27:33;;;;;;;6.40;2.45;;;;;;;;;;10472484;28;19912;-85
2021/08/08 08:32:34;;;;;;;7.88;2.63;;;;;;;;;;10468027;28;20119;-87
2021/08/08 08:37:35;;;;;;;5.45;2.55;;;;;;;;;;10485622;28;20399;-84
2021/08/08 08:42:40;;;;;;;6.82;2.22;;;;;;;;;;10458158;28;20033;-84
2021/08/08 08:47:42;;;;;;;8.52;2.72;;;;;;;;;;10457297;28;20025;-84
2021/08/08 08:52:44;;;;;;;7.05;2.72;;;;;;;;;;10464988;28;20039;-86
2021/08/08 08:57:45;;;;;;;6.35;3.08;;;;;;;;;;10457852;28;20483;-84
2021/08/08 09:02:46;;;;;;;7.90;2.60;;;;;;;;;;10454786;28;20037;-84
2021/08/08 09:07:46;;;;;;;;;;;;;;;;;;10454537;28;20028;-84
2021/08/08 09:12:57;;;;;;;8.95;3.10;;;;;;;;;;10471723;28;19905;-86
2021/08/08 09:18:09;;;;;;;7.82;2.80;;;;;;;;;;10460673;28;20029;-85
2021/08/08 09:23:10;;;;;;;7.35;2.50;;;;;;;;;;10465796;28;20048;-84
2021/08/08 11:27:31;;;;;;;7.57;2.60;;;;;;;;;;10399062;28;20076;-84
2021/08/08 11:50:30;;;;;;;5.32;1.92;;;;;;;;;;10318337;28;20029;-83
2021/08/08 12:07:28;;;;;;;4.85;2.08;;;;;;;;;;10314832;28;20039;-84
2021/08/08 12:36:09;;;;;;;5.63;1.92;;;;;;;;;;10481173;28;20382;-83
2021/08/08 13:04:28;;;;;;;5.45;1.67;;;;;;;;;;10474153;28;20092;-84
2021/08/08 13:09:42;;;;;;;5.43;1.80;;;;;;;;;;10453674;28;20065;-83
2021/08/08 13:26:31;;;;;;;8.95;2.67;;;;;;;;;;10473322;28;20029;-83
2021/08/08 13:32:04;;;;;;;3.90;1.58;;;;;;;;;;10467303;28;20116;-85
2021/08/08 13:37:35;;;;;;;3.35;1.38;;;;;;;;;;10350311;28;20027;-83
2021/08/08 13:43:03;;;;;;;4.20;1.77;;;;;;;;;;10333850;28;20090;-83
2021/08/08 13:48:32;;;;;;;4.75;2.15;;;;;;;;;;10319233;28;20062;-82
2021/08/08 14:10:57;;;;;;;2.95;1.45;;;;;;;;;;10454856;28;20490;-83
2021/08/08 14:16:47;;;;;;;7.03;1.80;;;;;;;;;;10490946;28;20096;-83
2021/08/08 14:34:08;;;;;;;5.43;1.33;;;;;;;;;;10312202;28;20034;-85
2021/08/08 14:39:53;;;;;;;3.97;1.73;;;;;;;;;;10267660;28;20079;-85
2021/08/08 14:50:40;;;;;;;3.50;1.70;;;;;;;;;;10270991;29;20023;-86
2021/08/08 15:18:34;;;;;;;3.38;1.30;;;;;;;;;;10487984;28;20017;-86
2021/08/08 15:41:00;;;;;;;3.35;1.30;;;;;;;;;;10418808;28;20010;-86
2021/08/08 15:57:21;;;;;;;4.63;1.52;;;;;;;;;;10405094;28;20021;-85
2021/08/08 16:08:07;;;;;;;4.38;1.45;;;;;;;;;;10410770;28;20026;-85
2021/08/08 16:13:08;;;;;;;4.40;1.42;;;;;;;;;;10406169;28;20056;-84
2021/08/08 16:29:45;;;;;;;3.65;1.58;;;;;;;;;;10400393;28;20046;-84
2021/08/08 16:40:58;;;;;;;2.38;1.38;;;;;;;;;;10322396;28;20027;-83
2021/08/08 16:46:19;;;;;;;1.98;1.30;;;;;;;;;;10312616;28;20111;-86
2021/08/08 16:51:21;;;;;;;2.17;1.20;;;;;;;;;;10313352;28;20031;-83
2021/08/08 16:57:06;;;;;;;3.10;1.50;;;;;;;;;;10377917;28;20038;-84
2021/08/08 17:02:25;;;;;;;3.42;1.50;;;;;;;;;;10377175;28;20510;-83
2021/08/08 17:08:21;;;;;;;1.92;1.10;;;;;;;;;;10393857;28;20038;-85
2021/08/08 17:13:53;;;;;;;3.47;1.10;;;;;;;;;;10406232;28;20127;-86
2021/08/08 17:24:51;;;;;;;3.80;1.00;;;;;;;;;;10395233;28;20041;-82
2021/08/08 17:36:08;;;;;;;4.82;1.40;;;;;;;;;;10313070;28;20524;-83
2021/08/08 18:04:22;;;;;;;3.47;1.70;;;;;;;;;;10331962;28;20022;-85
2021/08/08 18:15:55;;;;;;;2.58;1.08;;;;;;;;;;10308694;28;20152;-83
2021/08/08 18:21:27;;;;;;;3.10;1.45;;;;;;;;;;10268487;28;20038;-85
2021/08/08 18:26:33;;;;;;;2.90;1.65;;;;;;;;;;10339682;28;20165;-83
2021/08/08 18:43:28;;;;;;;2.88;1.80;;;;;;;;;;10312418;28;20070;-85
2021/08/08 19:39:36;;;;;;;2.78;1.50;;;;;;;;;;10444173;28;20014;-83
2021/08/08 19:45:08;;;;;;;2.58;1.52;;;;;;;;;;10430792;28;20037;-86
2021/08/08 19:56:20;;;;;;;2.45;1.55;;;;;;;;;;10447102;28;20026;-83
2021/08/08 20:07:27;;;;;;;3.85;1.95;;;;;;;;;;10440589;28;19913;-83
2021/08/08 20:12:48;;;;;;;3.10;1.50;;;;;;;;;;10436990;28;20045;-85
2021/08/08 20:17:49;;;;;;;3.67;1.83;;;;;;;;;;10422335;28;20041;-86
